Time;durP1;ratioP1;P1;durP2;ratioP2;P2;SDS_P1;SDS_P2;PMS_P1;PMS_P2;Temp;Humidity;BMP_temperature;BMP_pressure;BME280_temperature;BME280_humidity;BME280_pressure;Samples;Min_cycle;Max_cycle;Signal;HPM_P1;HPM_P2
2022/10/21 00:01:20;;;;;;;1.42;1.13;;;2.20;99.90;;;;;;4994840;28;20278;-81
2022/10/21 00:03:46;;;;;;;0.70;0.70;;;2.20;99.90;;;;;;4994949;28;20207;-82
2022/10/21 00:06:12;;;;;;;0.55;0.55;;;2.20;99.90;;;;;;4993839;28;20206;-81
2022/10/21 00:08:37;;;;;;;0.55;0.55;;;2.20;99.90;;;;;;4997641;28;20239;-81
2022/10/21 00:11:06;;;;;;;0.65;0.65;;;2.20;99.90;;;;;;5013811;28;20195;-81
2022/10/21 00:13:33;;;;;;;0.70;0.70;;;2.20;99.90;;;;;;5013054;28;20227;-82
2022/10/21 00:16:02;;;;;;;0.52;0.52;;;2.20;99.90;;;;;;5014429;28;20191;-82
2022/10/21 00:18:29;;;;;;;0.80;0.80;;;2.20;99.90;;;;;;5012640;28;20210;-82
2022/10/21 00:20:54;;;;;;;1.48;1.38;;;2.20;99.90;;;;;;5014373;28;20195;-82
2022/10/21 00:23:20;;;;;;;0.75;0.75;;;2.20;99.90;;;;;;5014267;28;20265;-82
2022/10/21 00:25:46;;;;;;;0.60;0.60;;;2.10;99.90;;;;;;4996671;28;20199;-82
2022/10/21 00:28:12;;;;;;;0.70;0.70;;;2.10;99.90;;;;;;4999891;28;20625;-83
2022/10/21 00:30:45;;;;;;;0.70;0.70;;;2.10;99.90;;;;;;5015953;28;20198;-82
2022/10/21 00:33:12;;;;;;;0.70;0.70;;;2.10;99.90;;;;;;5016037;28;20190;-81
2022/10/21 00:35:38;;;;;;;0.60;0.60;;;2.10;99.90;;;;;;5033639;28;20202;-81
2022/10/21 00:38:03;;;;;;;0.70;0.70;;;2.10;99.90;;;;;;5033939;28;20194;-82
2022/10/21 00:40:29;;;;;;;0.60;0.60;;;2.10;99.90;;;;;;5012465;28;20203;-82
2022/10/21 00:42:55;;;;;;;0.60;0.60;;;2.10;99.90;;;;;;5013930;28;20604;-82
2022/10/21 00:45:24;;;;;;;0.55;0.55;;;2.10;99.90;;;;;;5013504;28;20203;-81
2022/10/21 00:48:02;;;;;;;0.50;0.50;;;2.00;99.90;;;;;;5012405;28;20214;-82
2022/10/21 00:50:52;;;;;;;0.50;0.50;;;2.10;99.90;;;;;;5013492;28;20191;-81
2022/10/21 00:53:19;;;;;;;0.60;0.60;;;2.00;99.90;;;;;;5012174;28;20206;-82
2022/10/21 00:55:51;;;;;;;0.50;0.50;;;2.00;99.90;;;;;;5013717;28;20240;-83
2022/10/21 00:58:20;;;;;;;0.70;0.70;;;2.00;99.90;;;;;;5013788;28;20261;-82
2022/10/21 01:00:46;;;;;;;0.70;0.70;;;2.00;99.90;;;;;;4996101;28;20225;-82
2022/10/21 01:03:12;;;;;;;0.60;0.60;;;1.90;99.90;;;;;;5013883;28;20199;-81
2022/10/21 01:05:40;;;;;;;0.50;0.50;;;1.90;99.90;;;;;;5013308;28;20252;-82
2022/10/21 01:08:05;;;;;;;0.60;0.60;;;1.90;99.90;;;;;;5011868;28;20314;-81
2022/10/21 01:10:31;;;;;;;0.77;0.77;;;1.90;99.90;;;;;;5008340;28;20314;-81
2022/10/21 01:13:09;;;;;;;0.52;0.52;;;1.90;99.90;;;;;;4993871;28;20199;-82
2022/10/21 01:16:02;;;;;;;0.57;0.57;;;1.80;99.90;;;;;;5008505;28;20206;-81
2022/10/21 01:18:33;;;;;;;0.88;0.88;;;1.90;99.90;;;;;;4989345;28;20208;-78
2022/10/21 01:21:08;;;;;;;0.60;0.60;;;1.80;99.90;;;;;;4991688;28;20207;-80
2022/10/21 01:24:11;;;;;;;0.60;0.60;;;1.80;99.90;;;;;;4993161;28;20191;-79
2022/10/21 01:27:05;;;;;;;0.68;0.68;;;1.80;99.90;;;;;;4973823;28;20283;-79
2022/10/21 01:30:08;;;;;;;0.60;0.60;;;1.80;99.90;;;;;;4972522;28;20699;-80
2022/10/21 01:32:57;;;;;;;0.65;0.65;;;1.80;99.90;;;;;;4973910;28;20280;-79
2022/10/21 01:35:35;;;;;;;0.60;0.60;;;1.80;99.90;;;;;;4984738;28;20212;-79
2022/10/21 01:38:22;;;;;;;0.60;0.60;;;1.80;99.90;;;;;;5002374;28;20722;-79
2022/10/21 01:41:19;;;;;;;0.65;0.65;;;1.80;99.90;;;;;;4991939;28;20610;-79
2022/10/21 01:44:09;;;;;;;0.70;0.70;;;1.80;99.90;;;;;;4992707;28;20279;-79
2022/10/21 01:46:47;;;;;;;0.63;0.63;;;1.80;99.90;;;;;;4991818;28;20195;-79
2022/10/21 01:49:36;;;;;;;0.68;0.68;;;1.80;99.90;;;;;;4993006;28;20218;-79
2022/10/21 01:52:03;;;;;;;0.60;0.60;;;1.80;99.90;;;;;;5007860;28;20249;-80
2022/10/21 01:54:53;;;;;;;0.63;0.63;;;1.70;99.90;;;;;;4991639;28;20198;-79
2022/10/21 01:57:21;;;;;;;0.65;0.65;;;1.70;99.90;;;;;;4968915;28;20576;-79
2022/10/21 01:59:48;;;;;;;0.60;0.60;;;1.70;99.90;;;;;;4973695;28;20196;-79
2022/10/21 02:02:16;;;;;;;0.60;0.60;;;1.70;99.90;;;;;;4990078;28;20199;-79
2022/10/21 02:04:44;;;;;;;0.77;0.77;;;1.70;99.90;;;;;;4991492;28;20196;-80
2022/10/21 02:07:10;;;;;;;0.68;0.68;;;1.80;99.90;;;;;;4991810;28;20662;-79
2022/10/21 02:09:35;;;;;;;0.52;0.52;;;1.80;99.90;;;;;;5003535;28;20238;-78
2022/10/21 02:12:03;;;;;;;0.60;0.60;;;1.80;99.90;;;;;;5012370;28;20203;-80
2022/10/21 02:14:37;;;;;;;0.75;0.75;;;1.80;99.90;;;;;;4994565;28;20632;-79
2022/10/21 02:17:03;;;;;;;0.70;0.70;;;1.90;99.90;;;;;;5012521;28;20624;-79
2022/10/21 02:19:30;;;;;;;0.73;0.73;;;1.90;99.90;;;;;;4994544;28;20206;-79
2022/10/21 02:22:01;;;;;;;0.77;0.77;;;1.90;99.90;;;;;;5008410;28;20622;-79
2022/10/21 02:24:43;;;;;;;0.70;0.70;;;2.00;99.90;;;;;;5031877;28;20225;-80
2022/10/21 02:27:09;;;;;;;0.65;0.65;;;2.10;99.90;;;;;;5030865;28;20206;-79
2022/10/21 02:29:39;;;;;;;0.50;0.50;;;2.10;99.90;;;;;;5032066;28;20216;-79
2022/10/21 02:32:41;;;;;;;0.60;0.60;;;2.10;99.90;;;;;;5031853;28;20722;-80
2022/10/21 02:35:22;;;;;;;0.57;0.57;;;2.20;99.90;;;;;;4995192;28;20191;-80
2022/10/21 02:38:15;;;;;;;0.60;0.60;;;2.20;99.90;;;;;;4995281;28;20200;-78
2022/10/21 02:40:48;;;;;;;0.70;0.70;;;2.30;99.90;;;;;;4996135;28;20655;-78
2022/10/21 02:43:24;;;;;;;0.63;0.63;;;2.30;99.90;;;;;;5000450;28;20202;-79
2022/10/21 02:45:52;;;;;;;0.60;0.60;;;2.40;99.90;;;;;;5014482;28;20289;-78
2022/10/21 02:48:18;;;;;;;0.70;0.70;;;2.40;99.90;;;;;;5014640;28;20217;-78
2022/10/21 02:50:43;;;;;;;1.13;1.10;;;2.50;99.90;;;;;;5015837;28;20187;-78
2022/10/21 02:53:10;;;;;;;0.70;0.70;;;2.50;99.90;;;;;;5014725;28;20209;-79
2022/10/21 02:55:35;;;;;;;0.60;0.60;;;2.50;99.90;;;;;;5014807;28;20257;-78
2022/10/21 02:58:01;;;;;;;0.55;0.55;;;2.60;99.90;;;;;;5015571;28;20195;-79
2022/10/21 03:00:26;;;;;;;0.55;0.55;;;2.60;99.90;;;;;;5012347;28;20235;-79
2022/10/21 03:02:52;;;;;;;0.60;0.60;;;2.60;99.90;;;;;;5005314;28;20202;-78
2022/10/21 03:05:18;;;;;;;0.68;0.68;;;2.70;99.90;;;;;;4978594;28;20206;-78
2022/10/21 03:07:43;;;;;;;0.50;0.50;;;2.70;99.90;;;;;;5009329;28;20696;-79
2022/10/21 03:10:09;;;;;;;0.60;0.60;;;2.80;99.90;;;;;;5015450;28;20231;-79
2022/10/21 03:12:35;;;;;;;0.40;0.40;;;2.80;99.90;;;;;;5015731;28;20187;-78
2022/10/21 03:15:01;;;;;;;0.70;0.70;;;3.00;99.90;;;;;;5015637;28;20191;-79
2022/10/21 03:17:26;;;;;;;1.15;1.13;;;3.10;99.90;;;;;;5005113;28;20236;-79
2022/10/21 03:19:52;;;;;;;0.50;0.50;;;3.10;99.90;;;;;;5035260;28;20190;-79
2022/10/21 03:22:17;;;;;;;0.55;0.55;;;3.10;99.90;;;;;;5033910;28;20687;-79
2022/10/21 03:24:43;;;;;;;0.70;0.70;;;3.20;99.90;;;;;;5017498;28;20204;-78
2022/10/21 03:27:09;;;;;;;0.60;0.60;;;3.30;99.90;;;;;;5017415;28;20227;-79
2022/10/21 03:29:34;;;;;;;0.50;0.50;;;3.40;99.90;;;;;;5027396;28;20678;-79
2022/10/21 03:32:00;;;;;;;0.50;0.50;;;3.40;99.90;;;;;;5015016;28;20658;-79
2022/10/21 03:34:26;;;;;;;0.50;0.50;;;3.40;99.90;;;;;;5013706;28;20285;-79
2022/10/21 03:36:51;;;;;;;0.80;0.70;;;3.40;99.90;;;;;;5015184;28;20206;-79
2022/10/21 03:39:17;;;;;;;0.60;0.60;;;3.40;99.90;;;;;;5014796;28;20199;-80
2022/10/21 03:41:42;;;;;;;0.75;0.75;;;3.40;99.90;;;;;;5013711;28;20206;-79
2022/10/21 03:44:08;;;;;;;0.50;0.50;;;3.40;99.90;;;;;;4992890;28;20238;-79
2022/10/21 03:46:34;;;;;;;0.75;0.75;;;3.40;99.90;;;;;;4994219;28;20195;-79
2022/10/21 03:48:59;;;;;;;1.52;1.42;;;3.40;99.90;;;;;;4993891;28;20243;-79
2022/10/21 03:51:25;;;;;;;0.60;0.60;;;3.30;99.90;;;;;;4995438;28;20223;-79
2022/10/21 03:53:51;;;;;;;0.55;0.55;;;3.30;99.90;;;;;;4994224;28;20195;-79
2022/10/21 03:56:16;;;;;;;0.60;0.60;;;3.30;99.90;;;;;;4995361;28;20535;-79
2022/10/21 03:58:42;;;;;;;0.55;0.55;;;3.30;99.90;;;;;;5013629;28;20242;-79
2022/10/21 04:01:12;;;;;;;0.52;0.52;;;3.30;99.90;;;;;;5015276;28;20187;-79
2022/10/21 04:03:38;;;;;;;0.63;0.63;;;3.20;99.90;;;;;;5014056;28;20194;-79
2022/10/21 04:06:04;;;;;;;0.55;0.55;;;3.20;99.90;;;;;;4997235;28;20302;-80
2022/10/21 04:08:30;;;;;;;0.70;0.70;;;3.20;99.90;;;;;;5014508;28;20286;-78
2022/10/21 04:10:59;;;;;;;0.60;0.60;;;3.20;99.90;;;;;;4996813;28;20203;-78
2022/10/21 04:13:25;;;;;;;0.60;0.60;;;3.20;99.90;;;;;;5002549;28;20661;-79
2022/10/21 04:15:55;;;;;;;0.50;0.50;;;3.30;99.90;;;;;;5032996;28;20200;-79
2022/10/21 04:18:21;;;;;;;0.47;0.47;;;3.30;99.90;;;;;;5032896;28;20288;-79
2022/10/21 04:20:46;;;;;;;0.55;0.55;;;3.30;99.90;;;;;;5034197;28;20301;-79
2022/10/21 04:23:12;;;;;;;0.50;0.50;;;3.30;99.90;;;;;;5016350;28;20202;-79
2022/10/21 04:25:38;;;;;;;0.80;0.80;;;3.40;99.90;;;;;;5011655;28;20290;-80
2022/10/21 04:28:03;;;;;;;0.70;0.70;;;3.40;99.90;;;;;;4996840;28;20257;-79
2022/10/21 04:30:29;;;;;;;0.50;0.50;;;3.30;99.90;;;;;;5014106;28;20187;-79
2022/10/21 04:32:55;;;;;;;0.50;0.50;;;3.30;99.90;;;;;;5014267;28;20197;-80
2022/10/21 04:35:20;;;;;;;0.60;0.60;;;3.30;99.90;;;;;;5013969;28;20692;-80
2022/10/21 04:37:46;;;;;;;0.60;0.60;;;3.30;99.90;;;;;;5014033;28;20202;-79
2022/10/21 04:40:12;;;;;;;0.50;0.50;;;3.30;99.90;;;;;;4996217;28;20203;-79
2022/10/21 04:42:37;;;;;;;0.57;0.57;;;3.30;99.90;;;;;;4996288;28;20199;-79
2022/10/21 04:45:03;;;;;;;1.52;1.42;;;3.30;99.90;;;;;;5013818;28;20203;-78
2022/10/21 04:47:29;;;;;;;0.70;0.70;;;3.30;99.90;;;;;;5013964;28;20195;-79
2022/10/21 04:49:54;;;;;;;0.70;0.70;;;3.30;99.90;;;;;;5014115;28;20199;-79
2022/10/21 04:52:20;;;;;;;0.50;0.50;;;3.20;99.90;;;;;;5013882;28;20222;-79
2022/10/21 04:54:45;;;;;;;0.50;0.50;;;3.20;99.90;;;;;;5014216;28;20194;-79
2022/10/21 04:57:12;;;;;;;0.70;0.70;;;3.10;99.90;;;;;;5012422;28;20216;-79
2022/10/21 04:59:38;;;;;;;0.70;0.70;;;3.10;99.90;;;;;;5016678;28;20654;-79
2022/10/21 05:02:04;;;;;;;0.65;0.65;;;3.00;99.90;;;;;;4995626;28;20261;-77
2022/10/21 05:04:29;;;;;;;0.50;0.50;;;3.00;99.90;;;;;;4995637;28;20203;-78
2022/10/21 05:06:55;;;;;;;2.75;1.25;;;2.90;99.90;;;;;;4995869;28;20407;-80
2022/10/21 05:09:21;;;;;;;0.80;0.80;;;2.90;99.90;;;;;;5010896;28;20223;-78
2022/10/21 05:11:46;;;;;;;0.60;0.60;;;2.90;99.90;;;;;;5012527;28;20190;-80
2022/10/21 05:14:12;;;;;;;0.60;0.60;;;2.80;99.90;;;;;;5011958;28;20293;-78
2022/10/21 05:16:38;;;;;;;0.60;0.60;;;2.80;99.90;;;;;;5028393;28;20213;-78
2022/10/21 05:19:03;;;;;;;0.50;0.50;;;2.70;99.90;;;;;;5013472;28;20608;-78
2022/10/21 05:21:29;;;;;;;0.55;0.55;;;2.70;99.90;;;;;;5011867;28;20195;-78
2022/10/21 05:23:54;;;;;;;0.60;0.60;;;2.70;99.90;;;;;;4992307;28;20294;-78
2022/10/21 05:26:20;;;;;;;0.60;0.60;;;2.70;99.90;;;;;;4993359;28;20323;-78
2022/10/21 05:28:46;;;;;;;0.52;0.52;;;2.60;99.90;;;;;;4993382;28;20211;-78
2022/10/21 05:31:11;;;;;;;0.50;0.50;;;2.60;99.90;;;;;;4993450;28;20194;-78
2022/10/21 05:33:37;;;;;;;0.60;0.60;;;2.60;99.90;;;;;;4992010;28;20203;-78
2022/10/21 05:36:06;;;;;;;0.50;0.50;;;2.60;99.90;;;;;;4991823;28;20196;-78
2022/10/21 05:38:33;;;;;;;0.60;0.60;;;2.60;99.90;;;;;;4993189;28;20195;-78
2022/10/21 05:40:59;;;;;;;0.60;0.60;;;2.60;99.90;;;;;;4992200;28;20245;-79
2022/10/21 05:43:26;;;;;;;0.68;0.68;;;2.60;99.90;;;;;;4988048;28;20227;-78
2022/10/21 05:45:52;;;;;;;0.60;0.60;;;2.60;99.90;;;;;;4974007;28;20569;-78
2022/10/21 05:48:18;;;;;;;0.60;0.60;;;2.60;99.90;;;;;;5002145;28;20199;-77
2022/10/21 05:50:45;;;;;;;1.67;1.10;;;2.70;99.90;;;;;;4992015;28;20210;-78
2022/10/21 05:53:12;;;;;;;12.70;5.32;;;2.80;99.90;;;;;;4992123;28;20192;-78
2022/10/21 05:55:37;;;;;;;0.70;0.70;;;2.80;99.90;;;;;;4992706;28;20202;-78
2022/10/21 05:58:03;;;;;;;0.60;0.60;;;2.80;99.90;;;;;;4991794;28;20204;-78
2022/10/21 06:00:29;;;;;;;0.50;0.50;;;2.80;99.90;;;;;;4991839;28;20254;-78
2022/10/21 06:02:55;;;;;;;0.60;0.60;;;2.80;99.90;;;;;;4992993;28;20245;-78
2022/10/21 06:05:20;;;;;;;0.70;0.70;;;2.80;99.90;;;;;;4991925;28;20312;-78
2022/10/21 06:07:47;;;;;;;0.70;0.70;;;2.90;99.90;;;;;;5013731;28;20743;-79
2022/10/21 06:10:12;;;;;;;0.98;0.90;;;2.90;99.90;;;;;;5032072;28;20226;-79
2022/10/21 06:12:38;;;;;;;0.95;0.95;;;2.90;99.90;;;;;;5034802;28;20221;-79
2022/10/21 06:15:04;;;;;;;1.35;1.25;;;2.90;99.90;;;;;;5036375;28;20191;-77
2022/10/21 06:17:30;;;;;;;1.48;1.00;;;3.10;99.90;;;;;;5034990;28;20205;-79
2022/10/21 06:19:56;;;;;;;0.63;0.63;;;3.10;99.90;;;;;;5017059;28;20194;-78
2022/10/21 06:22:21;;;;;;;0.40;0.40;;;3.20;99.90;;;;;;5015459;28;20199;-78
2022/10/21 06:24:48;;;;;;;0.60;0.60;;;3.20;99.90;;;;;;5016604;28;20208;-78
2022/10/21 06:27:14;;;;;;;0.52;0.52;;;3.20;99.90;;;;;;4998845;28;20290;-78
2022/10/21 06:29:39;;;;;;;0.60;0.60;;;3.30;99.90;;;;;;4998560;28;20348;-78
2022/10/21 06:32:05;;;;;;;1.30;1.25;;;3.40;99.90;;;;;;4998683;28;20207;-78
2022/10/21 06:34:31;;;;;;;1.80;1.70;;;3.40;99.90;;;;;;5015887;28;20191;-78
2022/10/21 06:36:56;;;;;;;0.73;0.73;;;3.50;99.90;;;;;;4998360;28;20209;-78
2022/10/21 06:39:22;;;;;;;0.93;0.93;;;3.50;99.90;;;;;;5016162;28;20199;-78
2022/10/21 06:41:48;;;;;;;0.80;0.80;;;3.60;99.90;;;;;;5015881;28;20245;-78
2022/10/21 06:44:13;;;;;;;0.60;0.60;;;3.60;99.90;;;;;;4998011;28;20203;-78
2022/10/21 06:46:39;;;;;;;1.20;1.15;;;3.70;99.90;;;;;;5015469;28;20249;-78
2022/10/21 06:49:04;;;;;;;0.55;0.55;;;3.80;99.90;;;;;;5015718;28;20207;-78
2022/10/21 06:51:30;;;;;;;0.60;0.60;;;3.80;99.90;;;;;;5014068;28;20191;-78
2022/10/21 06:53:57;;;;;;;1.05;1.05;;;3.80;99.90;;;;;;5014229;28;20202;-78
2022/10/21 06:56:24;;;;;;;0.90;0.90;;;3.90;99.90;;;;;;5015772;28;20206;-78
2022/10/21 06:58:50;;;;;;;0.73;0.73;;;3.90;99.90;;;;;;4998098;28;20277;-80
2022/10/21 07:01:19;;;;;;;0.60;0.60;;;3.90;99.90;;;;;;5014407;28;20233;-78
2022/10/21 07:03:45;;;;;;;0.50;0.50;;;3.90;99.90;;;;;;5032698;28;20210;-78
2022/10/21 07:06:11;;;;;;;1.30;1.20;;;4.00;99.90;;;;;;5035387;28;20190;-81
2022/10/21 07:08:38;;;;;;;0.70;0.70;;;4.00;99.90;;;;;;5034542;28;20217;-80
2022/10/21 07:11:04;;;;;;;0.98;0.98;;;4.00;99.90;;;;;;5024404;28;20572;-81
2022/10/21 07:13:30;;;;;;;0.60;0.60;;;4.00;99.90;;;;;;4997810;28;20597;-81
2022/10/21 07:16:00;;;;;;;0.60;0.60;;;4.00;99.90;;;;;;4997446;28;20199;-81
2022/10/21 07:18:26;;;;;;;8.48;3.25;;;4.10;99.90;;;;;;5015007;28;20688;-81
2022/10/21 07:20:52;;;;;;;0.60;0.60;;;4.10;99.90;;;;;;4997943;28;20203;-81
2022/10/21 07:23:17;;;;;;;0.70;0.70;;;4.20;99.90;;;;;;4997512;28;20265;-80
2022/10/21 07:25:43;;;;;;;0.50;0.50;;;4.30;99.90;;;;;;5015440;28;20581;-79
2022/10/21 07:28:09;;;;;;;0.50;0.50;;;4.30;99.90;;;;;;5015278;28;20219;-80
2022/10/21 07:30:42;;;;;;;0.60;0.60;;;4.40;99.90;;;;;;5014437;28;20245;-80
2022/10/21 07:33:09;;;;;;;0.60;0.60;;;4.40;99.90;;;;;;5014720;28;20191;-80
2022/10/21 07:35:35;;;;;;;0.57;0.57;;;4.40;99.90;;;;;;5013844;28;20594;-80
2022/10/21 07:38:01;;;;;;;0.70;0.70;;;4.50;99.90;;;;;;5013871;28;20199;-80
2022/10/21 07:40:29;;;;;;;0.68;0.68;;;4.50;99.90;;;;;;5013851;28;20341;-80
2022/10/21 07:42:56;;;;;;;2.65;2.45;;;4.60;99.90;;;;;;5012159;28;20221;-79
2022/10/21 07:45:22;;;;;;;0.70;0.70;;;4.60;99.90;;;;;;4995306;28;20655;-79
2022/10/21 07:47:48;;;;;;;0.70;0.70;;;4.60;99.90;;;;;;5000370;28;20199;-79
2022/10/21 07:50:13;;;;;;;0.60;0.60;;;4.70;99.90;;;;;;5014885;28;20187;-80
2022/10/21 07:52:44;;;;;;;0.60;0.60;;;4.80;99.90;;;;;;4997008;28;20195;-79
2022/10/21 07:55:15;;;;;;;0.60;0.60;;;4.80;99.90;;;;;;4996782;28;20226;-80
2022/10/21 07:57:43;;;;;;;0.88;0.88;;;4.90;99.90;;;;;;4996934;28;20194;-80
2022/10/21 08:00:10;;;;;;;0.60;0.60;;;5.00;99.90;;;;;;5016244;28;20538;-79
2022/10/21 08:02:36;;;;;;;0.90;0.90;;;5.10;99.90;;;;;;5034180;28;20195;-80
2022/10/21 08:05:03;;;;;;;0.80;0.80;;;5.20;99.90;;;;;;5034392;28;20612;-80
2022/10/21 08:07:31;;;;;;;3.00;1.83;;;5.30;99.90;;;;;;5016258;28;20285;-80
2022/10/21 08:09:57;;;;;;;0.70;0.70;;;5.40;99.90;;;;;;5035105;28;20305;-80
2022/10/21 08:12:24;;;;;;;0.55;0.55;;;5.50;99.90;;;;;;4999705;28;20209;-81
2022/10/21 08:14:50;;;;;;;1.27;1.10;;;5.60;99.90;;;;;;4996690;28;20206;-80
2022/10/21 08:17:15;;;;;;;0.60;0.60;;;5.70;99.90;;;;;;5014227;28;20533;-79
2022/10/21 08:19:41;;;;;;;0.70;0.70;;;5.70;99.90;;;;;;4996644;28;20234;-83
2022/10/21 08:22:07;;;;;;;0.50;0.50;;;5.80;99.90;;;;;;4996686;28;20650;-82
2022/10/21 08:24:33;;;;;;;0.50;0.50;;;5.90;99.90;;;;;;4996232;28;20202;-81
2022/10/21 08:26:58;;;;;;;0.70;0.70;;;5.90;99.90;;;;;;4996657;28;20195;-82
2022/10/21 08:29:25;;;;;;;0.60;0.60;;;6.00;99.90;;;;;;5013777;28;20341;-81
2022/10/21 08:31:50;;;;;;;0.93;0.93;;;6.00;99.90;;;;;;4994894;28;20191;-81
2022/10/21 08:34:16;;;;;;;0.50;0.50;;;6.00;99.90;;;;;;5014057;28;20210;-78
2022/10/21 08:36:42;;;;;;;0.50;0.50;;;6.10;99.90;;;;;;4996060;28;20195;-78
2022/10/21 08:39:08;;;;;;;0.50;0.50;;;6.10;99.90;;;;;;4996168;28;20202;-81
2022/10/21 08:41:43;;;;;;;0.65;0.65;;;6.10;99.90;;;;;;5012508;28;20202;-81
2022/10/21 08:44:12;;;;;;;0.60;0.60;;;6.10;99.90;;;;;;5007785;28;20198;-81
2022/10/21 08:46:43;;;;;;;0.50;0.50;;;6.20;99.90;;;;;;4995979;28;20207;-81
2022/10/21 08:49:24;;;;;;;1.40;1.30;;;6.30;99.90;;;;;;5013770;28;20657;-81
2022/10/21 09:06:46;;;;;;;;;;;;;;;;;;;;;
2022/10/21 09:13:22;;;;;;;;;;;;;;;;;;;;;
2022/10/21 09:17:07;;;;;;;;;;;;;;;;;;;;;
2022/10/21 09:34:01;;;;;;;0.60;0.60;;;8.30;99.90;;;;;;5127280;27;20603;-75
2022/10/21 09:36:46;;;;;;;0.60;0.60;;;8.40;99.90;;;;;;5110217;28;20203;-76
2022/10/21 09:39:41;;;;;;;0.60;0.60;;;8.20;99.90;;;;;;5481514;22;20195;-72
2022/10/21 09:42:11;;;;;;;0.60;0.60;;;8.20;99.90;;;;;;5050129;28;20214;-70
2022/10/21 09:44:37;;;;;;;0.60;0.60;;;8.20;99.90;;;;;;5065331;28;20241;-72
2022/10/21 09:47:21;;;;;;;1.73;1.00;;;8.40;99.90;;;;;;5070202;28;20662;-70
2022/10/21 09:49:53;;;;;;;0.82;0.80;;;8.70;99.90;;;;;;5068648;28;20251;-70
2022/10/21 09:52:27;;;;;;;0.50;0.50;;;8.90;99.90;;;;;;5068594;28;20701;-70
2022/10/21 09:54:53;;;;;;;0.70;0.70;;;9.10;99.90;;;;;;5067445;28;20231;-70
2022/10/21 09:57:44;;;;;;;0.70;0.70;;;9.00;99.90;;;;;;5068953;28;20197;-71
2022/10/21 10:00:11;;;;;;;0.73;0.73;;;8.80;99.90;;;;;;5069748;28;20258;-71
2022/10/21 10:02:43;;;;;;;0.50;0.50;;;8.60;99.90;;;;;;5069721;28;20220;-71
2022/10/21 10:05:37;;;;;;;0.82;0.82;;;8.40;99.90;;;;;;5068375;28;20201;-70
2022/10/21 10:08:27;;;;;;;0.50;0.50;;;8.20;99.90;;;;;;5069917;28;20560;-70
2022/10/21 10:11:15;;;;;;;0.60;0.60;;;8.20;99.90;;;;;;5068905;28;20197;-70
2022/10/21 10:13:50;;;;;;;0.70;0.70;;;8.20;99.90;;;;;;5067498;28;20224;-71
2022/10/21 10:16:22;;;;;;;0.70;0.70;;;8.30;99.90;;;;;;5067737;28;20200;-70
2022/10/21 10:18:50;;;;;;;0.35;0.35;;;8.50;99.90;;;;;;5069074;28;20196;-70
2022/10/21 10:21:22;;;;;;;0.60;0.60;;;8.60;99.90;;;;;;5068024;28;20741;-70
2022/10/21 10:23:50;;;;;;;0.60;0.60;;;8.70;99.90;;;;;;5068872;28;20197;-70
2022/10/21 10:26:26;;;;;;;0.50;0.50;;;8.80;99.90;;;;;;5069329;28;20204;-70
2022/10/21 10:29:15;;;;;;;0.57;0.57;;;8.80;99.90;;;;;;5069290;28;20580;-69
2022/10/21 10:31:46;;;;;;;0.60;0.60;;;8.70;99.90;;;;;;5055363;28;20319;-70
2022/10/21 10:34:29;;;;;;;0.50;0.50;;;8.50;99.90;;;;;;5067909;28;20735;-69
2022/10/21 10:37:18;;;;;;;0.70;0.70;;;8.50;99.90;;;;;;5067316;28;20189;-70
2022/10/21 10:39:48;;;;;;;0.75;0.75;;;8.50;99.90;;;;;;5067581;28;20582;-70
2022/10/21 10:42:23;;;;;;;0.73;0.73;;;8.50;99.90;;;;;;5066979;28;20291;-69
2022/10/21 10:44:55;;;;;;;0.68;0.68;;;8.50;99.90;;;;;;5040606;28;20200;-68
2022/10/21 10:47:29;;;;;;;0.52;0.52;;;8.60;99.90;;;;;;5033863;28;20206;-69
2022/10/21 10:49:54;;;;;;;0.60;0.60;;;8.70;99.90;;;;;;5035816;28;20194;-69
2022/10/21 10:52:23;;;;;;;0.60;0.60;;;8.60;99.90;;;;;;5053365;28;20208;-70
2022/10/21 10:55:12;;;;;;;0.60;0.60;;;8.80;99.90;;;;;;5054597;28;20198;-69
2022/10/21 10:57:41;;;;;;;0.60;0.60;;;8.90;99.90;;;;;;5046315;28;20672;-70
2022/10/21 11:00:27;;;;;;;0.95;0.95;;;8.90;99.90;;;;;;5054038;28;20194;-69
2022/10/21 11:03:06;;;;;;;0.60;0.60;;;9.10;99.90;;;;;;5054989;28;20193;-70
2022/10/21 11:05:40;;;;;;;0.60;0.60;;;9.10;99.90;;;;;;5041092;28;20252;-69
2022/10/21 11:08:13;;;;;;;0.70;0.70;;;9.10;99.90;;;;;;5033640;28;20710;-69
2022/10/21 11:10:52;;;;;;;0.60;0.60;;;9.20;99.90;;;;;;5046470;28;20394;-71
2022/10/21 11:13:21;;;;;;;0.60;0.60;;;9.20;99.90;;;;;;5053372;28;20711;-69
2022/10/21 11:16:15;;;;;;;0.50;0.50;;;9.20;99.90;;;;;;5055021;28;20204;-71
2022/10/21 11:19:03;;;;;;;0.50;0.50;;;9.30;99.90;;;;;;5055138;28;20201;-70
2022/10/21 11:22:04;;;;;;;0.50;0.50;;;9.40;99.90;;;;;;5053922;28;20201;-70
2022/10/21 11:24:50;;;;;;;0.60;0.60;;;9.50;99.90;;;;;;5054268;28;20190;-70
2022/10/21 11:27:42;;;;;;;0.70;0.70;;;9.50;99.90;;;;;;5053397;28;20565;-70
2022/10/21 11:30:13;;;;;;;0.60;0.60;;;9.50;99.90;;;;;;5054948;28;20189;-70
2022/10/21 11:33:01;;;;;;;0.60;0.60;;;9.40;99.90;;;;;;5052598;28;20205;-70
2022/10/21 11:35:38;;;;;;;0.55;0.55;;;9.50;99.90;;;;;;5054179;28;20190;-68
2022/10/21 11:38:23;;;;;;;0.63;0.63;;;9.90;99.90;;;;;;5054417;28;20201;-70
2022/10/21 11:41:04;;;;;;;0.60;0.60;;;10.70;99.90;;;;;;5053495;28;20220;-72
2022/10/21 11:43:45;;;;;;;0.60;0.60;;;11.30;99.90;;;;;;5047952;28;20269;-71
2022/10/21 11:46:37;;;;;;;0.60;0.60;;;11.40;99.90;;;;;;5034851;28;20201;-72
2022/10/21 11:49:29;;;;;;;0.50;0.50;;;11.50;99.90;;;;;;5034640;28;20199;-73
2022/10/21 11:52:14;;;;;;;0.50;0.50;;;11.50;99.90;;;;;;5063464;28;20213;-72
2022/10/21 11:55:20;;;;;;;0.50;0.50;;;11.50;99.90;;;;;;5053542;28;20608;-72
2022/10/21 11:58:07;;;;;;;0.57;0.57;;;11.20;99.90;;;;;;5053282;28;20563;-71
2022/10/21 12:00:45;;;;;;;0.50;0.50;;;11.00;99.90;;;;;;5053685;28;20238;-71
2022/10/21 12:03:41;;;;;;;0.50;0.50;;;10.40;99.90;;;;;;5054482;28;20193;-70
2022/10/21 12:06:30;;;;;;;0.52;0.52;;;10.00;99.90;;;;;;5054309;28;20233;-70
2022/10/21 12:09:05;;;;;;;0.50;0.50;;;9.80;99.90;;;;;;5054108;28;20232;-69
2022/10/21 12:11:41;;;;;;;0.70;0.70;;;9.70;99.90;;;;;;5051735;28;20205;-70
2022/10/21 12:14:31;;;;;;;0.50;0.50;;;9.70;99.90;;;;;;5054026;28;20200;-70
2022/10/21 12:16:59;;;;;;;0.60;0.60;;;9.60;99.90;;;;;;5052607;28;20202;-70
2022/10/21 12:19:25;;;;;;;0.70;0.70;;;9.60;99.90;;;;;;5053788;28;20186;-70
2022/10/21 12:21:54;;;;;;;0.60;0.60;;;9.60;99.90;;;;;;5053942;28;20190;-70
2022/10/21 12:24:31;;;;;;;0.50;0.50;;;9.60;99.90;;;;;;5053500;28;20197;-71
2022/10/21 12:27:23;;;;;;;0.50;0.50;;;9.60;99.90;;;;;;5051712;28;20197;-70
2022/10/21 12:29:49;;;;;;;0.50;0.50;;;9.40;99.90;;;;;;5053718;28;20193;-70
2022/10/21 12:32:33;;;;;;;3.50;1.17;;;9.40;99.90;;;;;;5053692;28;20201;-71
2022/10/21 12:35:00;;;;;;;0.80;0.80;;;9.30;99.90;;;;;;5053633;28;20200;-70
2022/10/21 12:38:04;;;;;;;0.60;0.60;;;9.10;99.90;;;;;;5053655;28;20683;-71
2022/10/21 12:40:31;;;;;;;1.30;0.93;;;9.00;99.90;;;;;;5052183;28;20229;-71
2022/10/21 12:43:00;;;;;;;0.60;0.60;;;9.00;99.90;;;;;;5053505;28;20196;-70
2022/10/21 12:45:31;;;;;;;0.50;0.50;;;8.90;99.90;;;;;;5053330;28;20228;-71
2022/10/21 12:47:57;;;;;;;0.50;0.50;;;8.90;99.90;;;;;;5053459;28;20212;-70
2022/10/21 12:50:28;;;;;;;0.50;0.50;;;9.00;99.90;;;;;;5053049;28;20560;-71
2022/10/21 12:53:09;;;;;;;1.45;0.98;;;9.00;99.90;;;;;;5053294;28;20216;-70
2022/10/21 12:55:39;;;;;;;1.73;1.63;;;8.90;99.90;;;;;;5052350;28;20502;-70
2022/10/21 12:58:50;;;;;;;0.80;0.80;;;8.90;99.90;;;;;;5053490;28;20197;-70
2022/10/21 13:01:39;;;;;;;0.60;0.60;;;8.90;99.90;;;;;;5047935;28;20509;-70
2022/10/21 13:04:31;;;;;;;0.50;0.50;;;8.80;99.90;;;;;;5052748;28;20211;-71
2022/10/21 13:07:00;;;;;;;0.50;0.50;;;8.80;99.90;;;;;;5052736;28;20668;-70
2022/10/21 13:09:55;;;;;;;0.70;0.70;;;8.70;99.90;;;;;;5052946;28;20185;-70
2022/10/21 13:12:24;;;;;;;0.57;0.57;;;8.80;99.90;;;;;;5052140;28;20342;-70
2022/10/21 13:15:18;;;;;;;0.60;0.60;;;8.80;99.90;;;;;;5052960;28;20192;-70
2022/10/21 13:17:52;;;;;;;0.60;0.60;;;8.80;99.90;;;;;;5052655;28;20198;-71
2022/10/21 13:20:24;;;;;;;0.70;0.70;;;8.90;99.90;;;;;;5052805;28;20243;-71
2022/10/21 13:22:56;;;;;;;0.50;0.50;;;8.90;99.90;;;;;;5052105;28;20224;-71
2022/10/21 13:25:29;;;;;;;1.38;0.75;;;8.90;99.90;;;;;;5051882;28;20193;-73
2022/10/21 13:28:03;;;;;;;0.80;0.80;;;9.00;99.90;;;;;;5053101;28;20194;-71
2022/10/21 13:31:04;;;;;;;0.73;0.73;;;9.10;99.90;;;;;;5052650;28;20659;-71
2022/10/21 13:33:36;;;;;;;0.85;0.85;;;9.10;99.90;;;;;;5050855;28;20217;-72
2022/10/21 13:36:10;;;;;;;0.60;0.60;;;9.20;99.90;;;;;;5050977;28;20270;-71
2022/10/21 13:38:45;;;;;;;0.93;0.93;;;9.20;99.90;;;;;;5052124;28;20273;-70
2022/10/21 13:41:32;;;;;;;0.40;0.40;;;9.30;99.90;;;;;;5051163;28;20220;-70
2022/10/21 13:44:04;;;;;;;0.68;0.68;;;9.40;99.90;;;;;;5052095;28;20244;-71
2022/10/21 13:47:20;;;;;;;0.57;0.57;;;9.40;99.90;;;;;;5052170;28;20216;-72
2022/10/21 13:49:52;;;;;;;0.55;0.55;;;9.40;99.90;;;;;;4991184;28;20242;-71
2022/10/21 13:52:18;;;;;;;0.60;0.60;;;9.40;99.90;;;;;;4991298;28;20668;-71
2022/10/21 13:54:44;;;;;;;2.75;1.00;;;9.30;99.90;;;;;;5027242;28;20206;-71
2022/10/21 13:57:16;;;;;;;0.60;0.60;;;9.10;99.90;;;;;;5051849;28;20207;-72
2022/10/21 13:59:42;;;;;;;0.50;0.50;;;9.10;99.90;;;;;;5052508;28;20224;-71